sensor_id;sensor_type;location;lat;lon;timestamp;P1;durP1;ratioP1;P2;durP2;ratioP2
6755;SDS011;3415;51.148;7.014;2022-10-14T05:27:53;9.83;;;5.37;;
6755;SDS011;3415;51.148;7.014;2022-10-14T05:30:20;12.30;;;6.73;;
6755;SDS011;3415;51.148;7.014;2022-10-14T05:32:46;10.83;;;5.77;;
6755;SDS011;3415;51.148;7.014;2022-10-14T05:35:13;8.87;;;5.73;;
6755;SDS011;3415;51.148;7.014;2022-10-14T05:37:40;10.77;;;5.90;;
6755;SDS011;3415;51.148;7.014;2022-10-14T05:40:08;12.50;;;5.30;;
6755;SDS011;3415;51.148;7.014;2022-10-14T05:42:35;11.57;;;6.30;;
6755;SDS011;3415;51.148;7.014;2022-10-14T05:45:04;9.60;;;5.63;;
6755;SDS011;3415;51.148;7.014;2022-10-14T05:47:32;13.33;;;6.60;;
6755;SDS011;3415;51.148;7.014;2022-10-14T05:49:59;13.37;;;6.30;;
6755;SDS011;3415;51.148;7.014;2022-10-14T05:52:27;9.40;;;5.43;;
6755;SDS011;3415;51.148;7.014;2022-10-14T05:54:56;12.70;;;5.53;;
6755;SDS011;3415;51.148;7.014;2022-10-14T05:57:22;11.87;;;5.87;;
6755;SDS011;3415;51.148;7.014;2022-10-14T05:59:49;8.67;;;5.70;;
6755;SDS011;3415;51.148;7.014;2022-10-14T06:02:17;7.40;;;5.23;;
6755;SDS011;3415;51.148;7.014;2022-10-14T06:04:45;10.90;;;6.17;;
6755;SDS011;3415;51.148;7.014;2022-10-14T06:07:11;11.23;;;6.10;;
6755;SDS011;3415;51.148;7.014;2022-10-14T06:09:39;13.73;;;6.20;;
6755;SDS011;3415;51.148;7.014;2022-10-14T06:12:06;9.60;;;6.40;;
6755;SDS011;3415;51.148;7.014;2022-10-14T06:14:33;11.00;;;5.40;;
6755;SDS011;3415;51.148;7.014;2022-10-14T06:17:02;11.40;;;6.80;;
6755;SDS011;3415;51.148;7.014;2022-10-14T06:19:30;15.80;;;6.23;;
6755;SDS011;3415;51.148;7.014;2022-10-14T06:21:58;14.00;;;6.27;;
6755;SDS011;3415;51.148;7.014;2022-10-14T06:24:25;9.80;;;5.40;;
6755;SDS011;3415;51.148;7.014;2022-10-14T06:26:51;11.93;;;6.07;;
6755;SDS011;3415;51.148;7.014;2022-10-14T06:29:18;8.27;;;4.77;;
6755;SDS011;3415;51.148;7.014;2022-10-14T06:31:47;9.47;;;5.87;;
6755;SDS011;3415;51.148;7.014;2022-10-14T06:34:14;10.93;;;5.90;;
6755;SDS011;3415;51.148;7.014;2022-10-14T06:36:42;12.53;;;5.90;;
6755;SDS011;3415;51.148;7.014;2022-10-14T06:39:09;7.73;;;5.33;;
6755;SDS011;3415;51.148;7.014;2022-10-14T06:41:36;17.73;;;5.27;;
6755;SDS011;3415;51.148;7.014;2022-10-14T06:44:02;8.23;;;5.13;;
6755;SDS011;3415;51.148;7.014;2022-10-14T06:46:29;8.57;;;4.93;;
6755;SDS011;3415;51.148;7.014;2022-10-14T06:48:56;6.40;;;4.07;;
6755;SDS011;3415;51.148;7.014;2022-10-14T06:51:23;8.70;;;3.80;;
6755;SDS011;3415;51.148;7.014;2022-10-14T06:53:51;5.33;;;3.97;;
6755;SDS011;3415;51.148;7.014;2022-10-14T06:56:18;5.77;;;3.90;;
6755;SDS011;3415;51.148;7.014;2022-10-14T06:58:45;8.50;;;4.20;;
6755;SDS011;3415;51.148;7.014;2022-10-14T07:01:11;6.20;;;4.40;;
6755;SDS011;3415;51.148;7.014;2022-10-14T07:03:38;5.17;;;3.60;;
6755;SDS011;3415;51.148;7.014;2022-10-14T07:06:06;10.20;;;4.63;;
6755;SDS011;3415;51.148;7.014;2022-10-14T07:08:33;6.90;;;4.13;;
6755;SDS011;3415;51.148;7.014;2022-10-14T07:11:02;9.13;;;5.23;;
6755;SDS011;3415;51.148;7.014;2022-10-14T07:13:29;8.07;;;4.60;;
6755;SDS011;3415;51.148;7.014;2022-10-14T07:15:58;6.53;;;3.97;;
6755;SDS011;3415;51.148;7.014;2022-10-14T07:18:25;6.53;;;4.27;;
6755;SDS011;3415;51.148;7.014;2022-10-14T07:20:52;6.70;;;4.23;;
6755;SDS011;3415;51.148;7.014;2022-10-14T07:23:18;6.80;;;3.70;;
6755;SDS011;3415;51.148;7.014;2022-10-14T07:25:45;7.40;;;4.90;;
6755;SDS011;3415;51.148;7.014;2022-10-14T07:28:13;5.57;;;4.20;;
6755;SDS011;3415;51.148;7.014;2022-10-14T07:30:40;6.73;;;4.23;;
6755;SDS011;3415;51.148;7.014;2022-10-14T07:33:07;5.73;;;4.17;;
6755;SDS011;3415;51.148;7.014;2022-10-14T07:35:36;7.33;;;4.33;;
6755;SDS011;3415;51.148;7.014;2022-10-14T07:38:02;8.20;;;4.27;;
6755;SDS011;3415;51.148;7.014;2022-10-14T07:40:29;15.20;;;4.90;;
6755;SDS011;3415;51.148;7.014;2022-10-14T07:42:56;8.50;;;4.40;;
6755;SDS011;3415;51.148;7.014;2022-10-14T07:45:25;6.80;;;3.40;;
6755;SDS011;3415;51.148;7.014;2022-10-14T07:47:54;8.13;;;4.40;;
6755;SDS011;3415;51.148;7.014;2022-10-14T07:50:21;10.53;;;4.90;;
6755;SDS011;3415;51.148;7.014;2022-10-14T07:52:48;7.37;;;4.00;;
6755;SDS011;3415;51.148;7.014;2022-10-14T07:55:15;8.00;;;4.53;;
6755;SDS011;3415;51.148;7.014;2022-10-14T07:57:41;8.20;;;4.07;;
6755;SDS011;3415;51.148;7.014;2022-10-14T08:00:08;7.60;;;3.97;;
6755;SDS011;3415;51.148;7.014;2022-10-14T08:02:37;7.53;;;4.50;;
6755;SDS011;3415;51.148;7.014;2022-10-14T08:05:04;5.40;;;3.80;;
6755;SDS011;3415;51.148;7.014;2022-10-14T08:07:31;7.93;;;4.03;;
6755;SDS011;3415;51.148;7.014;2022-10-14T08:09:58;9.93;;;3.80;;
6755;SDS011;3415;51.148;7.014;2022-10-14T08:12:25;6.20;;;3.83;;
6755;SDS011;3415;51.148;7.014;2022-10-14T08:14:53;7.10;;;4.00;;
6755;SDS011;3415;51.148;7.014;2022-10-14T08:17:21;7.93;;;3.90;;
6755;SDS011;3415;51.148;7.014;2022-10-14T08:19:49;8.83;;;3.60;;
6755;SDS011;3415;51.148;7.014;2022-10-14T08:22:16;8.07;;;3.93;;
6755;SDS011;3415;51.148;7.014;2022-10-14T08:24:43;5.30;;;3.47;;
6755;SDS011;3415;51.148;7.014;2022-10-14T08:27:11;5.23;;;3.40;;
6755;SDS011;3415;51.148;7.014;2022-10-14T08:29:37;4.63;;;3.10;;
6755;SDS011;3415;51.148;7.014;2022-10-14T08:32:04;5.43;;;3.37;;
6755;SDS011;3415;51.148;7.014;2022-10-14T08:34:31;5.10;;;3.43;;
6755;SDS011;3415;51.148;7.014;2022-10-14T08:37:00;5.13;;;3.50;;
6755;SDS011;3415;51.148;7.014;2022-10-14T08:39:27;8.47;;;4.13;;
6755;SDS011;3415;51.148;7.014;2022-10-14T08:44:59;5.30;;;3.30;;
6755;SDS011;3415;51.148;7.014;2022-10-14T08:47:33;6.37;;;3.43;;
6755;SDS011;3415;51.148;7.014;2022-10-14T08:50:03;6.10;;;3.50;;
6755;SDS011;3415;51.148;7.014;2022-10-14T08:52:38;5.47;;;3.53;;
6755;SDS011;3415;51.148;7.014;2022-10-14T08:55:13;6.57;;;3.73;;
6755;SDS011;3415;51.148;7.014;2022-10-14T08:57:48;10.63;;;3.90;;
6755;SDS011;3415;51.148;7.014;2022-10-14T09:00:19;9.63;;;4.40;;
6755;SDS011;3415;51.148;7.014;2022-10-14T09:02:47;8.10;;;4.40;;
6755;SDS011;3415;51.148;7.014;2022-10-14T09:05:15;6.03;;;3.47;;
6755;SDS011;3415;51.148;7.014;2022-10-14T09:07:45;7.90;;;4.30;;
6755;SDS011;3415;51.148;7.014;2022-10-14T09:10:14;6.30;;;3.83;;
6755;SDS011;3415;51.148;7.014;2022-10-14T09:12:48;6.00;;;3.57;;
6755;SDS011;3415;51.148;7.014;2022-10-14T09:15:19;7.60;;;3.90;;
6755;SDS011;3415;51.148;7.014;2022-10-14T09:17:55;6.30;;;3.97;;
6755;SDS011;3415;51.148;7.014;2022-10-14T09:20:30;6.30;;;4.10;;
6755;SDS011;3415;51.148;7.014;2022-10-14T09:23:01;5.23;;;3.90;;
6755;SDS011;3415;51.148;7.014;2022-10-14T09:25:39;8.83;;;3.77;;
6755;SDS011;3415;51.148;7.014;2022-10-14T09:28:13;5.17;;;3.43;;
6755;SDS011;3415;51.148;7.014;2022-10-14T09:30:40;5.43;;;3.60;;
6755;SDS011;3415;51.148;7.014;2022-10-14T09:33:08;4.87;;;3.40;;
6755;SDS011;3415;51.148;7.014;2022-10-14T09:35:41;5.13;;;3.37;;
6755;SDS011;3415;51.148;7.014;2022-10-14T09:38:10;5.33;;;3.53;;
6755;SDS011;3415;51.148;7.014;2022-10-14T09:40:40;6.77;;;3.97;;
6755;SDS011;3415;51.148;7.014;2022-10-14T09:43:12;7.90;;;3.83;;
6755;SDS011;3415;51.148;7.014;2022-10-14T09:45:51;7.37;;;4.17;;
6755;SDS011;3415;51.148;7.014;2022-10-14T09:48:29;4.60;;;3.20;;
6755;SDS011;3415;51.148;7.014;2022-10-14T09:51:02;6.70;;;3.90;;
6755;SDS011;3415;51.148;7.014;2022-10-14T09:53:32;5.43;;;3.60;;
6755;SDS011;3415;51.148;7.014;2022-10-14T09:56:03;4.87;;;3.03;;
6755;SDS011;3415;51.148;7.014;2022-10-14T09:58:34;5.40;;;3.60;;
6755;SDS011;3415;51.148;7.014;2022-10-14T10:01:03;4.80;;;3.33;;
6755;SDS011;3415;51.148;7.014;2022-10-14T10:03:36;6.73;;;3.60;;
6755;SDS011;3415;51.148;7.014;2022-10-14T10:06:05;5.60;;;3.50;;
6755;SDS011;3415;51.148;7.014;2022-10-14T10:08:35;5.60;;;3.80;;
6755;SDS011;3415;51.148;7.014;2022-10-14T10:11:03;5.33;;;3.30;;
6755;SDS011;3415;51.148;7.014;2022-10-14T10:13:34;5.60;;;3.23;;
6755;SDS011;3415;51.148;7.014;2022-10-14T10:16:16;4.90;;;3.30;;
6755;SDS011;3415;51.148;7.014;2022-10-14T10:18:46;5.47;;;3.60;;
6755;SDS011;3415;51.148;7.014;2022-10-14T10:21:17;4.30;;;3.03;;
6755;SDS011;3415;51.148;7.014;2022-10-14T10:23:51;6.00;;;3.83;;
6755;SDS011;3415;51.148;7.014;2022-10-14T10:26:20;5.10;;;3.50;;
6755;SDS011;3415;51.148;7.014;2022-10-14T10:28:52;7.90;;;4.63;;
6755;SDS011;3415;51.148;7.014;2022-10-14T10:34:29;5.47;;;3.80;;
6755;SDS011;3415;51.148;7.014;2022-10-14T10:37:10;6.60;;;4.13;;
6755;SDS011;3415;51.148;7.014;2022-10-14T10:39:49;7.17;;;4.20;;
6755;SDS011;3415;51.148;7.014;2022-10-14T10:42:33;9.10;;;4.70;;
6755;SDS011;3415;51.148;7.014;2022-10-14T10:45:06;8.50;;;4.37;;
6755;SDS011;3415;51.148;7.014;2022-10-14T10:47:42;9.40;;;5.30;;
6755;SDS011;3415;51.148;7.014;2022-10-14T10:50:27;7.57;;;4.20;;
6755;SDS011;3415;51.148;7.014;2022-10-14T10:53:13;8.13;;;4.80;;
6755;SDS011;3415;51.148;7.014;2022-10-14T10:55:53;10.63;;;5.27;;
6755;SDS011;3415;51.148;7.014;2022-10-14T10:58:35;10.43;;;4.80;;
6755;SDS011;3415;51.148;7.014;2022-10-14T11:01:09;10.00;;;4.97;;
6755;SDS011;3415;51.148;7.014;2022-10-14T11:03:50;18.97;;;6.13;;
6755;SDS011;3415;51.148;7.014;2022-10-14T11:06:24;9.87;;;5.13;;
6755;SDS011;3415;51.148;7.014;2022-10-14T11:09:15;9.13;;;4.97;;
6755;SDS011;3415;51.148;7.014;2022-10-14T11:12:08;13.50;;;5.70;;
6755;SDS011;3415;51.148;7.014;2022-10-14T11:14:54;10.17;;;5.70;;
6755;SDS011;3415;51.148;7.014;2022-10-14T11:17:35;11.20;;;5.20;;
6755;SDS011;3415;51.148;7.014;2022-10-14T11:20:15;10.50;;;5.40;;
6755;SDS011;3415;51.148;7.014;2022-10-14T11:22:56;11.30;;;5.60;;
6755;SDS011;3415;51.148;7.014;2022-10-14T11:25:42;8.57;;;5.10;;
6755;SDS011;3415;51.148;7.014;2022-10-14T11:28:17;9.50;;;5.83;;
6755;SDS011;3415;51.148;7.014;2022-10-14T11:30:52;10.33;;;5.80;;
6755;SDS011;3415;51.148;7.014;2022-10-14T11:33:27;18.57;;;6.73;;
6755;SDS011;3415;51.148;7.014;2022-10-14T11:36:08;10.40;;;6.43;;
6755;SDS011;3415;51.148;7.014;2022-10-14T11:38:58;10.53;;;6.50;;
6755;SDS011;3415;51.148;7.014;2022-10-14T11:41:41;15.80;;;6.53;;
6755;SDS011;3415;51.148;7.014;2022-10-14T11:44:20;11.07;;;5.90;;
6755;SDS011;3415;51.148;7.014;2022-10-14T11:46:54;9.37;;;5.77;;
6755;SDS011;3415;51.148;7.014;2022-10-14T11:49:25;12.23;;;5.70;;
6755;SDS011;3415;51.148;7.014;2022-10-14T11:51:56;9.80;;;5.47;;
6755;SDS011;3415;51.148;7.014;2022-10-14T11:54:29;14.63;;;6.40;;
6755;SDS011;3415;51.148;7.014;2022-10-14T11:56:58;10.73;;;5.93;;
6755;SDS011;3415;51.148;7.014;2022-10-14T11:59:38;10.43;;;5.50;;
6755;SDS011;3415;51.148;7.014;2022-10-14T12:02:19;11.03;;;6.10;;
6755;SDS011;3415;51.148;7.014;2022-10-14T12:04:53;10.77;;;6.47;;
6755;SDS011;3415;51.148;7.014;2022-10-14T12:07:28;12.70;;;6.57;;
6755;SDS011;3415;51.148;7.014;2022-10-14T12:10:00;10.77;;;6.03;;
6755;SDS011;3415;51.148;7.014;2022-10-14T12:12:29;11.80;;;6.67;;
6755;SDS011;3415;51.148;7.014;2022-10-14T12:15:03;12.27;;;6.83;;
6755;SDS011;3415;51.148;7.014;2022-10-14T12:17:33;12.80;;;6.93;;
6755;SDS011;3415;51.148;7.014;2022-10-14T12:20:04;9.53;;;6.10;;
6755;SDS011;3415;51.148;7.014;2022-10-14T12:22:50;14.57;;;7.33;;
6755;SDS011;3415;51.148;7.014;2022-10-14T12:25:19;12.23;;;6.63;;
6755;SDS011;3415;51.148;7.014;2022-10-14T12:27:49;13.70;;;7.73;;
6755;SDS011;3415;51.148;7.014;2022-10-14T12:30:36;13.10;;;6.97;;
6755;SDS011;3415;51.148;7.014;2022-10-14T12:33:06;26.30;;;7.03;;
6755;SDS011;3415;51.148;7.014;2022-10-14T12:35:44;11.27;;;6.57;;
6755;SDS011;3415;51.148;7.014;2022-10-14T12:38:16;11.63;;;6.73;;
6755;SDS011;3415;51.148;7.014;2022-10-14T12:40:43;15.27;;;7.70;;
6755;SDS011;3415;51.148;7.014;2022-10-14T12:43:14;12.33;;;6.93;;
6755;SDS011;3415;51.148;7.014;2022-10-14T12:48:43;15.93;;;8.00;;
6755;SDS011;3415;51.148;7.014;2022-10-14T12:51:14;13.30;;;7.07;;
6755;SDS011;3415;51.148;7.014;2022-10-14T12:53:48;13.70;;;8.10;;
6755;SDS011;3415;51.148;7.014;2022-10-14T12:56:27;21.23;;;7.67;;
6755;SDS011;3415;51.148;7.014;2022-10-14T12:59:00;14.43;;;7.27;;
6755;SDS011;3415;51.148;7.014;2022-10-14T13:01:30;13.00;;;7.63;;
6755;SDS011;3415;51.148;7.014;2022-10-14T13:03:58;15.50;;;8.07;;
6755;SDS011;3415;51.148;7.014;2022-10-14T13:06:31;11.73;;;7.20;;
6755;SDS011;3415;51.148;7.014;2022-10-14T13:09:16;12.80;;;7.07;;
6755;SDS011;3415;51.148;7.014;2022-10-14T13:12:10;13.23;;;7.50;;
6755;SDS011;3415;51.148;7.014;2022-10-14T13:14:55;11.93;;;6.47;;
6755;SDS011;3415;51.148;7.014;2022-10-14T13:17:28;20.03;;;7.37;;
6755;SDS011;3415;51.148;7.014;2022-10-14T13:23:18;19.43;;;8.43;;
6755;SDS011;3415;51.148;7.014;2022-10-14T13:25:53;10.83;;;6.20;;
6755;SDS011;3415;51.148;7.014;2022-10-14T13:28:31;11.47;;;6.37;;
6755;SDS011;3415;51.148;7.014;2022-10-14T13:31:05;12.10;;;6.97;;
6755;SDS011;3415;51.148;7.014;2022-10-14T13:33:39;10.30;;;6.67;;
6755;SDS011;3415;51.148;7.014;2022-10-14T13:36:14;11.50;;;5.93;;
6755;SDS011;3415;51.148;7.014;2022-10-14T13:38:45;11.30;;;6.70;;
6755;SDS011;3415;51.148;7.014;2022-10-14T13:41:18;13.70;;;6.77;;
6755;SDS011;3415;51.148;7.014;2022-10-14T13:43:49;11.00;;;7.20;;
6755;SDS011;3415;51.148;7.014;2022-10-14T13:46:20;11.40;;;6.93;;
6755;SDS011;3415;51.148;7.014;2022-10-14T13:48:55;11.87;;;6.77;;
6755;SDS011;3415;51.148;7.014;2022-10-14T13:51:26;11.03;;;6.73;;
6755;SDS011;3415;51.148;7.014;2022-10-14T13:53:57;12.10;;;7.53;;
6755;SDS011;3415;51.148;7.014;2022-10-14T13:56:33;11.80;;;6.53;;
6755;SDS011;3415;51.148;7.014;2022-10-14T13:59:00;13.30;;;5.97;;
6755;SDS011;3415;51.148;7.014;2022-10-14T14:01:28;10.33;;;5.70;;
6755;SDS011;3415;51.148;7.014;2022-10-14T14:03:58;10.77;;;5.80;;
6755;SDS011;3415;51.148;7.014;2022-10-14T14:06:26;18.30;;;5.30;;
6755;SDS011;3415;51.148;7.014;2022-10-14T14:08:54;9.20;;;5.87;;
6755;SDS011;3415;51.148;7.014;2022-10-14T14:11:24;10.23;;;5.90;;
6755;SDS011;3415;51.148;7.014;2022-10-14T14:13:53;9.77;;;6.00;;
6755;SDS011;3415;51.148;7.014;2022-10-14T14:16:23;8.57;;;4.90;;
6755;SDS011;3415;51.148;7.014;2022-10-14T14:18:54;8.70;;;5.43;;
6755;SDS011;3415;51.148;7.014;2022-10-14T14:21:24;10.37;;;6.07;;
6755;SDS011;3415;51.148;7.014;2022-10-14T14:23:53;13.50;;;6.00;;
6755;SDS011;3415;51.148;7.014;2022-10-14T14:26:22;8.53;;;5.67;;
6755;SDS011;3415;51.148;7.014;2022-10-14T14:28:54;9.17;;;5.27;;
6755;SDS011;3415;51.148;7.014;2022-10-14T14:31:21;8.20;;;5.47;;
6755;SDS011;3415;51.148;7.014;2022-10-14T14:33:51;9.57;;;5.73;;
6755;SDS011;3415;51.148;7.014;2022-10-14T14:36:24;8.40;;;5.70;;
6755;SDS011;3415;51.148;7.014;2022-10-14T14:38:54;11.43;;;5.70;;
6755;SDS011;3415;51.148;7.014;2022-10-14T14:41:23;13.33;;;6.70;;
6755;SDS011;3415;51.148;7.014;2022-10-14T14:43:51;11.10;;;6.10;;
6755;SDS011;3415;51.148;7.014;2022-10-14T14:46:20;10.90;;;6.40;;
6755;SDS011;3415;51.148;7.014;2022-10-14T14:48:53;10.00;;;6.03;;
6755;SDS011;3415;51.148;7.014;2022-10-14T14:51:21;8.97;;;6.20;;
6755;SDS011;3415;51.148;7.014;2022-10-14T14:53:50;9.03;;;5.67;;
6755;SDS011;3415;51.148;7.014;2022-10-14T14:56:22;10.10;;;5.83;;
6755;SDS011;3415;51.148;7.014;2022-10-14T14:58:51;10.00;;;6.47;;
6755;SDS011;3415;51.148;7.014;2022-10-14T15:01:24;9.77;;;5.83;;
6755;SDS011;3415;51.148;7.014;2022-10-14T15:03:54;8.80;;;6.23;;
6755;SDS011;3415;51.148;7.014;2022-10-14T15:06:23;9.13;;;6.20;;
6755;SDS011;3415;51.148;7.014;2022-10-14T15:08:52;11.03;;;6.40;;
6755;SDS011;3415;51.148;7.014;2022-10-14T15:11:21;11.33;;;6.43;;
6755;SDS011;3415;51.148;7.014;2022-10-14T15:13:52;13.63;;;7.40;;
6755;SDS011;3415;51.148;7.014;2022-10-14T15:16:30;11.10;;;7.70;;
6755;SDS011;3415;51.148;7.014;2022-10-14T15:19:11;11.07;;;8.20;;
6755;SDS011;3415;51.148;7.014;2022-10-14T15:21:38;13.90;;;6.60;;
6755;SDS011;3415;51.148;7.014;2022-10-14T15:24:13;11.80;;;6.50;;
6755;SDS011;3415;51.148;7.014;2022-10-14T15:26:42;13.37;;;7.37;;
6755;SDS011;3415;51.148;7.014;2022-10-14T15:29:11;9.50;;;5.90;;
6755;SDS011;3415;51.148;7.014;2022-10-14T15:31:40;16.00;;;7.27;;
6755;SDS011;3415;51.148;7.014;2022-10-14T15:34:13;10.93;;;5.93;;
6755;SDS011;3415;51.148;7.014;2022-10-14T15:36:47;10.33;;;6.00;;
6755;SDS011;3415;51.148;7.014;2022-10-14T15:39:17;8.53;;;6.10;;
6755;SDS011;3415;51.148;7.014;2022-10-14T15:41:45;9.00;;;5.60;;
6755;SDS011;3415;51.148;7.014;2022-10-14T15:44:12;9.83;;;5.53;;
6755;SDS011;3415;51.148;7.014;2022-10-14T15:46:39;8.40;;;4.97;;
6755;SDS011;3415;51.148;7.014;2022-10-14T15:49:26;10.43;;;5.83;;
6755;SDS011;3415;51.148;7.014;2022-10-14T15:51:55;9.87;;;6.03;;
6755;SDS011;3415;51.148;7.014;2022-10-14T15:54:23;8.63;;;5.47;;
6755;SDS011;3415;51.148;7.014;2022-10-14T15:56:51;12.10;;;5.30;;
6755;SDS011;3415;51.148;7.014;2022-10-14T15:59:18;9.73;;;5.70;;
6755;SDS011;3415;51.148;7.014;2022-10-14T16:01:46;14.10;;;6.30;;
6755;SDS011;3415;51.148;7.014;2022-10-14T16:04:14;11.37;;;6.73;;
6755;SDS011;3415;51.148;7.014;2022-10-14T16:06:46;9.40;;;5.73;;
6755;SDS011;3415;51.148;7.014;2022-10-14T16:09:13;11.80;;;6.53;;
6755;SDS011;3415;51.148;7.014;2022-10-14T16:11:41;14.43;;;7.90;;
6755;SDS011;3415;51.148;7.014;2022-10-14T16:14:09;14.97;;;6.87;;
6755;SDS011;3415;51.148;7.014;2022-10-14T16:16:39;10.97;;;6.50;;
6755;SDS011;3415;51.148;7.014;2022-10-14T16:19:08;9.33;;;5.73;;
6755;SDS011;3415;51.148;7.014;2022-10-14T16:21:35;10.30;;;6.57;;
6755;SDS011;3415;51.148;7.014;2022-10-14T16:24:02;8.80;;;5.30;;
6755;SDS011;3415;51.148;7.014;2022-10-14T16:26:29;9.80;;;5.87;;
6755;SDS011;3415;51.148;7.014;2022-10-14T16:28:58;9.03;;;5.73;;
6755;SDS011;3415;51.148;7.014;2022-10-14T16:31:27;10.13;;;5.83;;
6755;SDS011;3415;51.148;7.014;2022-10-14T16:33:54;10.73;;;6.40;;
6755;SDS011;3415;51.148;7.014;2022-10-14T16:36:21;8.90;;;6.10;;
6755;SDS011;3415;51.148;7.014;2022-10-14T16:38:50;19.13;;;6.50;;
6755;SDS011;3415;51.148;7.014;2022-10-14T16:41:17;12.00;;;6.13;;
6755;SDS011;3415;51.148;7.014;2022-10-14T16:43:44;9.63;;;6.53;;
6755;SDS011;3415;51.148;7.014;2022-10-14T16:46:13;9.50;;;6.07;;
6755;SDS011;3415;51.148;7.014;2022-10-14T16:48:41;10.27;;;6.30;;
6755;SDS011;3415;51.148;7.014;2022-10-14T16:51:08;15.13;;;5.93;;
6755;SDS011;3415;51.148;7.014;2022-10-14T16:53:36;16.73;;;5.73;;
6755;SDS011;3415;51.148;7.014;2022-10-14T16:56:06;11.40;;;6.50;;
6755;SDS011;3415;51.148;7.014;2022-10-14T16:58:50;12.37;;;7.50;;
6755;SDS011;3415;51.148;7.014;2022-10-14T17:01:18;12.20;;;8.07;;
6755;SDS011;3415;51.148;7.014;2022-10-14T17:03:45;11.20;;;7.50;;
6755;SDS011;3415;51.148;7.014;2022-10-14T17:06:11;9.20;;;6.00;;
6755;SDS011;3415;51.148;7.014;2022-10-14T17:08:38;10.93;;;6.70;;
6755;SDS011;3415;51.148;7.014;2022-10-14T17:11:06;9.90;;;6.13;;
6755;SDS011;3415;51.148;7.014;2022-10-14T17:13:33;9.40;;;6.50;;
6755;SDS011;3415;51.148;7.014;2022-10-14T17:16:00;10.90;;;6.13;;
6755;SDS011;3415;51.148;7.014;2022-10-14T17:18:28;9.47;;;6.17;;
6755;SDS011;3415;51.148;7.014;2022-10-14T17:20:58;11.00;;;5.50;;
6755;SDS011;3415;51.148;7.014;2022-10-14T17:23:27;12.40;;;6.40;;
6755;SDS011;3415;51.148;7.014;2022-10-14T17:25:54;11.90;;;7.20;;
6755;SDS011;3415;51.148;7.014;2022-10-14T17:28:21;7.97;;;5.37;;
6755;SDS011;3415;51.148;7.014;2022-10-14T17:30:49;12.10;;;5.60;;
6755;SDS011;3415;51.148;7.014;2022-10-14T17:33:16;9.90;;;5.30;;
6755;SDS011;3415;51.148;7.014;2022-10-14T17:35:45;9.53;;;5.40;;
6755;SDS011;3415;51.148;7.014;2022-10-14T17:38:12;9.13;;;4.53;;
6755;SDS011;3415;51.148;7.014;2022-10-14T17:40:38;10.40;;;6.23;;
6755;SDS011;3415;51.148;7.014;2022-10-14T17:43:05;7.67;;;4.93;;
6755;SDS011;3415;51.148;7.014;2022-10-14T17:45:32;8.23;;;4.70;;
6755;SDS011;3415;51.148;7.014;2022-10-14T17:47:59;8.90;;;4.77;;
6755;SDS011;3415;51.148;7.014;2022-10-14T17:50:26;8.03;;;5.53;;
6755;SDS011;3415;51.148;7.014;2022-10-14T17:52:54;7.03;;;4.40;;
6755;SDS011;3415;51.148;7.014;2022-10-14T17:55:22;10.57;;;5.30;;
6755;SDS011;3415;51.148;7.014;2022-10-14T17:57:50;8.10;;;4.83;;
6755;SDS011;3415;51.148;7.014;2022-10-14T18:00:17;8.83;;;4.40;;
6755;SDS011;3415;51.148;7.014;2022-10-14T18:02:44;7.10;;;5.10;;
6755;SDS011;3415;51.148;7.014;2022-10-14T18:05:11;16.10;;;4.10;;
6755;SDS011;3415;51.148;7.014;2022-10-14T18:07:38;7.37;;;4.93;;
6755;SDS011;3415;51.148;7.014;2022-10-14T18:10:07;7.50;;;4.50;;
6755;SDS011;3415;51.148;7.014;2022-10-14T18:12:34;8.07;;;4.60;;
6755;SDS011;3415;51.148;7.014;2022-10-14T18:15:01;8.20;;;4.87;;
6755;SDS011;3415;51.148;7.014;2022-10-14T18:17:28;7.10;;;4.40;;
6755;SDS011;3415;51.148;7.014;2022-10-14T18:19:55;7.63;;;4.23;;
6755;SDS011;3415;51.148;7.014;2022-10-14T18:22:24;11.43;;;5.73;;
6755;SDS011;3415;51.148;7.014;2022-10-14T18:24:51;8.97;;;5.20;;
6755;SDS011;3415;51.148;7.014;2022-10-14T18:27:19;6.87;;;4.60;;
6755;SDS011;3415;51.148;7.014;2022-10-14T18:29:46;10.90;;;5.50;;
6755;SDS011;3415;51.148;7.014;2022-10-14T18:32:12;9.93;;;5.40;;
6755;SDS011;3415;51.148;7.014;2022-10-14T18:34:39;9.93;;;6.10;;
6755;SDS011;3415;51.148;7.014;2022-10-14T18:37:06;12.73;;;6.83;;
6755;SDS011;3415;51.148;7.014;2022-10-14T18:39:33;11.17;;;5.67;;
6755;SDS011;3415;51.148;7.014;2022-10-14T18:42:00;10.90;;;5.97;;
6755;SDS011;3415;51.148;7.014;2022-10-14T18:44:29;8.80;;;5.10;;
6755;SDS011;3415;51.148;7.014;2022-10-14T18:46:55;10.67;;;4.50;;
6755;SDS011;3415;51.148;7.014;2022-10-14T18:49:22;7.53;;;5.03;;
6755;SDS011;3415;51.148;7.014;2022-10-14T18:51:49;8.27;;;5.47;;
6755;SDS011;3415;51.148;7.014;2022-10-14T18:54:19;10.53;;;5.60;;
6755;SDS011;3415;51.148;7.014;2022-10-14T18:56:47;8.27;;;5.20;;
6755;SDS011;3415;51.148;7.014;2022-10-14T18:59:18;10.93;;;5.93;;
6755;SDS011;3415;51.148;7.014;2022-10-14T19:01:47;7.47;;;4.80;;
6755;SDS011;3415;51.148;7.014;2022-10-14T19:04:17;10.87;;;5.67;;
6755;SDS011;3415;51.148;7.014;2022-10-14T19:06:45;8.20;;;5.43;;
6755;SDS011;3415;51.148;7.014;2022-10-14T19:09:13;10.73;;;5.37;;
6755;SDS011;3415;51.148;7.014;2022-10-14T19:11:40;8.53;;;5.60;;
6755;SDS011;3415;51.148;7.014;2022-10-14T19:14:07;8.17;;;5.17;;
6755;SDS011;3415;51.148;7.014;2022-10-14T19:16:35;15.90;;;10.20;;
6755;SDS011;3415;51.148;7.014;2022-10-14T19:19:05;18.53;;;6.07;;
6755;SDS011;3415;51.148;7.014;2022-10-14T19:21:35;8.60;;;5.33;;
6755;SDS011;3415;51.148;7.014;2022-10-14T19:24:03;8.40;;;6.03;;
6755;SDS011;3415;51.148;7.014;2022-10-14T19:26:31;12.73;;;5.80;;
6755;SDS011;3415;51.148;7.014;2022-10-14T19:29:00;12.80;;;6.30;;
6755;SDS011;3415;51.148;7.014;2022-10-14T19:31:30;8.07;;;5.20;;
6755;SDS011;3415;51.148;7.014;2022-10-14T19:33:59;10.23;;;5.93;;
6755;SDS011;3415;51.148;7.014;2022-10-14T19:36:28;21.67;;;6.57;;
6755;SDS011;3415;51.148;7.014;2022-10-14T19:38:57;8.87;;;5.47;;
6755;SDS011;3415;51.148;7.014;2022-10-14T19:41:24;8.53;;;5.43;;
6755;SDS011;3415;51.148;7.014;2022-10-14T19:43:52;8.23;;;5.30;;
6755;SDS011;3415;51.148;7.014;2022-10-14T19:46:20;8.67;;;5.23;;
6755;SDS011;3415;51.148;7.014;2022-10-14T19:48:51;10.27;;;6.00;;
6755;SDS011;3415;51.148;7.014;2022-10-14T19:51:19;8.50;;;5.77;;
6755;SDS011;3415;51.148;7.014;2022-10-14T19:53:47;9.50;;;5.77;;
6755;SDS011;3415;51.148;7.014;2022-10-14T19:56:14;11.10;;;5.40;;
6755;SDS011;3415;51.148;7.014;2022-10-14T19:58:41;7.80;;;4.97;;
6755;SDS011;3415;51.148;7.014;2022-10-14T20:01:08;7.20;;;4.50;;
6755;SDS011;3415;51.148;7.014;2022-10-14T20:03:37;16.80;;;5.30;;
6755;SDS011;3415;51.148;7.014;2022-10-14T20:06:04;6.43;;;4.30;;
6755;SDS011;3415;51.148;7.014;2022-10-14T20:08:32;8.60;;;4.33;;
6755;SDS011;3415;51.148;7.014;2022-10-14T20:11:00;7.20;;;4.67;;
6755;SDS011;3415;51.148;7.014;2022-10-14T20:13:28;6.70;;;4.17;;
6755;SDS011;3415;51.148;7.014;2022-10-14T20:15:55;7.30;;;4.40;;
6755;SDS011;3415;51.148;7.014;2022-10-14T20:18:23;6.10;;;4.30;;
6755;SDS011;3415;51.148;7.014;2022-10-14T20:20:51;11.63;;;4.47;;
6755;SDS011;3415;51.148;7.014;2022-10-14T20:23:18;6.37;;;4.10;;
6755;SDS011;3415;51.148;7.014;2022-10-14T20:25:45;7.00;;;4.20;;
6755;SDS011;3415;51.148;7.014;2022-10-14T20:28:13;7.43;;;4.10;;
6755;SDS011;3415;51.148;7.014;2022-10-14T20:30:43;5.60;;;4.30;;
6755;SDS011;3415;51.148;7.014;2022-10-14T20:33:12;9.47;;;5.30;;
6755;SDS011;3415;51.148;7.014;2022-10-14T20:35:38;5.43;;;4.07;;
6755;SDS011;3415;51.148;7.014;2022-10-14T20:38:05;8.27;;;4.73;;
6755;SDS011;3415;51.148;7.014;2022-10-14T20:40:32;7.70;;;4.40;;
6755;SDS011;3415;51.148;7.014;2022-10-14T20:42:59;7.50;;;4.80;;
6755;SDS011;3415;51.148;7.014;2022-10-14T20:45:27;6.90;;;4.50;;
6755;SDS011;3415;51.148;7.014;2022-10-14T20:47:54;6.97;;;4.60;;
6755;SDS011;3415;51.148;7.014;2022-10-14T20:50:22;7.40;;;4.67;;
6755;SDS011;3415;51.148;7.014;2022-10-14T20:52:48;7.63;;;4.70;;
6755;SDS011;3415;51.148;7.014;2022-10-14T20:55:15;5.83;;;4.50;;
6755;SDS011;3415;51.148;7.014;2022-10-14T20:57:42;8.13;;;5.13;;
6755;SDS011;3415;51.148;7.014;2022-10-14T21:00:09;8.40;;;5.83;;
6755;SDS011;3415;51.148;7.014;2022-10-14T21:02:38;8.03;;;4.67;;
6755;SDS011;3415;51.148;7.014;2022-10-14T21:05:05;5.63;;;3.83;;
6755;SDS011;3415;51.148;7.014;2022-10-14T21:07:32;6.90;;;4.50;;